createdAt,value
2019-05-09T00:04:13.749Z,2.30
2019-05-09T00:08:24.989Z,2.60
2019-05-09T00:12:36.581Z,2.90
2019-05-09T00:16:48.279Z,4.13
2019-05-09T00:21:07.031Z,2.47
2019-05-09T00:25:18.908Z,2.07
2019-05-09T00:29:38.891Z,2.10
2019-05-09T00:33:55.753Z,2.40
2019-05-09T00:38:09.084Z,2.40
2019-05-09T00:42:20.781Z,2.40
2019-05-09T00:46:49.234Z,2.97
2019-05-09T00:51:03.273Z,2.50
2019-05-09T00:55:14.534Z,2.63
2019-05-09T00:59:26.236Z,2.10
2019-05-09T01:03:37.918Z,2.70
2019-05-09T01:07:50.754Z,2.60
2019-05-09T01:12:04.171Z,3.13
2019-05-09T01:16:15.693Z,3.70
2019-05-09T01:20:27.485Z,3.43
2019-05-09T01:24:39.423Z,3.50
2019-05-09T01:28:53.558Z,3.43
2019-05-09T01:33:24.171Z,4.07
2019-05-09T01:37:36.004Z,4.83
2019-05-09T01:41:47.794Z,4.03
2019-05-09T01:45:59.589Z,4.60
2019-05-09T01:50:13.877Z,6.23
2019-05-09T01:54:26.602Z,5.60
2019-05-09T01:58:38.396Z,5.77
2019-05-09T02:02:50.109Z,5.77
2019-05-09T02:07:03.964Z,6.53
2019-05-09T02:11:15.418Z,4.60
2019-05-09T02:15:43.451Z,5.03
2019-05-09T02:19:55.003Z,5.00
2019-05-09T02:24:06.901Z,4.57
2019-05-09T02:28:19.593Z,3.70
2019-05-09T02:32:34.482Z,4.20
2019-05-09T02:36:44.963Z,3.10
2019-05-09T02:40:59.454Z,3.03
2019-05-09T02:45:10.731Z,2.77
2019-05-09T02:49:22.616Z,3.17
2019-05-09T02:53:34.421Z,3.27
2019-05-09T02:57:48.980Z,3.50
2019-05-09T03:02:28.673Z,3.17
2019-05-09T03:06:39.240Z,2.70
2019-05-09T03:10:51.002Z,3.50
2019-05-09T03:15:02.810Z,2.67
2019-05-09T03:19:14.638Z,2.40
2019-05-09T03:23:28.518Z,2.70
2019-05-09T03:27:41.652Z,3.33
2019-05-09T03:31:54.570Z,2.73
2019-05-09T03:36:07.796Z,2.27
2019-05-09T03:40:19.779Z,2.20
2019-05-09T03:44:31.569Z,2.43
2019-05-09T03:48:47.865Z,2.07
2019-05-09T03:52:59.580Z,1.83
2019-05-09T03:57:20.023Z,2.80
2019-05-09T04:01:31.885Z,2.77
2019-05-09T04:05:55.351Z,3.20
2019-05-09T04:09:58.497Z,2.93
2019-05-09T04:14:14.193Z,2.93
2019-05-09T04:18:27.713Z,2.60
2019-05-09T04:22:39.327Z,2.53
2019-05-09T04:27:14.620Z,3.10
2019-05-09T04:31:28.012Z,2.93
2019-05-09T04:35:40.133Z,3.07
2019-05-09T04:39:54.001Z,3.17
2019-05-09T04:44:16.471Z,4.20
2019-05-09T04:48:32.405Z,3.57
2019-05-09T04:52:43.996Z,4.60
2019-05-09T04:56:57.447Z,4.07
2019-05-09T05:01:28.217Z,4.00
2019-05-09T05:05:40.268Z,4.47
2019-05-09T05:09:52.077Z,4.17
2019-05-09T05:14:03.982Z,4.33
2019-05-09T05:18:17.377Z,4.83
2019-05-09T05:22:38.703Z,5.63
2019-05-09T05:26:50.558Z,5.03
2019-05-09T05:31:02.408Z,4.40
2019-05-09T05:35:33.136Z,4.83
2019-05-09T05:39:44.877Z,4.50
2019-05-09T05:43:58.040Z,3.77
2019-05-09T05:48:17.365Z,4.13
2019-05-09T05:52:28.478Z,4.20
2019-05-09T05:56:40.285Z,4.50
2019-05-09T06:00:52.184Z,4.10
2019-05-09T06:05:03.993Z,4.37
2019-05-09T06:09:15.865Z,3.20
2019-05-09T06:13:27.691Z,3.83
2019-05-09T06:17:39.529Z,3.40
2019-05-09T06:21:52.322Z,3.53
2019-05-09T06:26:04.531Z,3.53
2019-05-09T06:30:21.194Z,3.80
2019-05-09T06:34:32.904Z,3.97
2019-05-09T06:38:44.734Z,3.70
2019-05-09T06:42:59.003Z,3.70
2019-05-09T06:47:27.745Z,3.50
2019-05-09T06:51:39.601Z,3.07
2019-05-09T06:55:51.429Z,2.70
2019-05-09T07:00:04.263Z,3.33
2019-05-09T07:04:24.941Z,3.43
2019-05-09T07:08:58.320Z,3.27
2019-05-09T07:13:09.346Z,2.97
2019-05-09T07:17:21.712Z,3.20
2019-05-09T07:21:52.646Z,2.67
2019-05-09T07:26:17.735Z,3.67
2019-05-09T07:30:58.135Z,2.97
2019-05-09T07:35:10.342Z,4.30
2019-05-09T07:39:25.069Z,3.57
2019-05-09T07:43:38.983Z,3.37
2019-05-09T07:47:52.331Z,3.03
2019-05-09T07:52:09.406Z,3.73
2019-05-09T07:56:18.930Z,3.40
2019-05-09T08:00:38.211Z,3.30
2019-05-09T08:04:50.949Z,3.60
2019-05-09T08:09:02.738Z,3.43
2019-05-09T08:13:14.558Z,3.60
2019-05-09T08:17:28.572Z,3.47
2019-05-09T08:21:42.991Z,3.60
2019-05-09T08:25:57.878Z,3.57
2019-05-09T08:30:10.581Z,3.50
2019-05-09T08:34:22.614Z,3.57
2019-05-09T08:38:34.447Z,3.77
2019-05-09T08:42:48.146Z,3.13
2019-05-09T08:47:01.980Z,3.13
2019-05-09T08:51:23.593Z,3.43
2019-05-09T08:55:35.480Z,3.17
2019-05-09T08:59:50.518Z,3.50
2019-05-09T09:04:00.721Z,2.40
2019-05-09T09:08:12.537Z,3.27
2019-05-09T09:12:33.103Z,3.53
2019-05-09T09:16:41.506Z,3.17
2019-05-09T09:20:52.118Z,2.97
2019-05-09T09:25:03.927Z,2.87
2019-05-09T09:29:17.741Z,2.77
2019-05-09T09:33:29.028Z,2.97
2019-05-09T09:37:48.588Z,2.60
2019-05-09T09:41:54.349Z,2.73
2019-05-09T09:46:13.338Z,3.10
2019-05-09T09:50:19.645Z,3.00
2019-05-09T09:54:31.441Z,2.90
2019-05-09T09:58:44.854Z,2.57
2019-05-09T10:02:58.714Z,2.43
2019-05-09T10:07:09.939Z,2.57
2019-05-09T10:11:21.869Z,2.90
2019-05-09T10:15:42.944Z,2.83
2019-05-09T10:20:13.530Z,3.10
2019-05-09T10:24:25.281Z,2.30
2019-05-09T10:28:38.002Z,3.20
2019-05-09T10:32:50.058Z,2.40
2019-05-09T10:37:01.768Z,3.00
2019-05-09T10:41:13.497Z,2.77
2019-05-09T10:45:41.067Z,2.50
2019-05-09T10:49:52.880Z,2.97
2019-05-09T10:54:04.797Z,2.40
2019-05-09T10:58:19.648Z,3.00
2019-05-09T11:02:30.127Z,2.80
2019-05-09T11:06:43.959Z,2.97
2019-05-09T11:10:57.880Z,2.70
2019-05-09T11:15:09.573Z,3.03
2019-05-09T11:19:21.735Z,2.57
2019-05-09T11:23:33.538Z,2.10
2019-05-09T11:27:45.453Z,2.20
2019-05-09T11:31:58.684Z,2.47
2019-05-09T11:36:11.225Z,2.00
2019-05-09T11:40:23.409Z,2.10
2019-05-09T11:44:35.262Z,1.60
2019-05-09T11:48:47.841Z,1.53
2019-05-09T11:53:00.130Z,2.07
2019-05-09T11:57:11.924Z,1.93
2019-05-09T12:01:23.878Z,1.80
2019-05-09T12:05:37.885Z,1.80
2019-05-09T12:09:49.442Z,2.30
2019-05-09T12:14:02.464Z,2.57
2019-05-09T12:18:14.248Z,2.50
2019-05-09T12:22:27.947Z,2.13
2019-05-09T12:26:39.366Z,2.37
2019-05-09T12:30:52.032Z,2.37
2019-05-09T12:35:03.995Z,2.63
2019-05-09T12:39:18.559Z,2.10
2019-05-09T12:43:29.041Z,2.40
2019-05-09T12:47:41.939Z,2.50
2019-05-09T12:51:53.860Z,2.17
2019-05-09T12:56:07.960Z,2.47
2019-05-09T13:00:19.097Z,3.00
2019-05-09T13:04:30.908Z,2.60
2019-05-09T13:08:42.702Z,2.80
2019-05-09T13:12:54.386Z,2.40
2019-05-09T13:17:17.833Z,2.40
2019-05-09T13:21:32.598Z,2.33
2019-05-09T13:25:42.753Z,2.10
2019-05-09T13:29:54.817Z,2.60
2019-05-09T13:34:08.018Z,2.97
2019-05-09T13:38:20.149Z,2.27
2019-05-09T13:42:31.967Z,2.80
2019-05-09T13:46:43.764Z,2.03
2019-05-09T13:50:57.681Z,2.10
2019-05-09T13:55:08.908Z,2.80
2019-05-09T13:59:20.632Z,2.93
2019-05-09T14:03:32.785Z,2.57
2019-05-09T14:07:45.536Z,2.33
2019-05-09T14:11:59.008Z,2.43
2019-05-09T14:16:20.010Z,2.60
2019-05-09T14:20:24.061Z,2.10
2019-05-09T14:24:35.901Z,2.20
2019-05-09T14:28:49.040Z,2.10
2019-05-09T14:33:00.961Z,2.20
2019-05-09T14:37:12.782Z,2.50
2019-05-09T14:41:24.441Z,2.37
2019-05-09T14:45:38.077Z,2.30
2019-05-09T14:49:50.700Z,2.57
2019-05-09T14:54:02.772Z,2.53
2019-05-09T14:58:14.606Z,2.23
2019-05-09T15:02:26.412Z,2.23
2019-05-09T15:06:38.317Z,2.23
2019-05-09T15:10:50.113Z,1.97
2019-05-09T15:15:01.734Z,2.20
2019-05-09T15:19:14.560Z,2.30
2019-05-09T15:23:29.238Z,2.50
2019-05-09T15:27:44.111Z,2.47
2019-05-09T15:32:03.333Z,2.43
2019-05-09T15:36:10.809Z,2.20
2019-05-09T15:40:24.196Z,2.00
2019-05-09T15:44:38.052Z,2.00
2019-05-09T15:48:51.889Z,1.77
2019-05-09T15:53:08.288Z,2.27
2019-05-09T15:57:21.146Z,1.70
2019-05-09T16:01:35.037Z,1.47
2019-05-09T16:05:48.975Z,2.20
2019-05-09T16:10:02.735Z,1.73
2019-05-09T16:14:18.488Z,1.87
2019-05-09T16:18:31.657Z,1.90
2019-05-09T16:22:48.115Z,1.93
2019-05-09T16:27:00.607Z,1.70
2019-05-09T16:31:14.784Z,1.87
2019-05-09T16:35:28.800Z,2.20
2019-05-09T16:39:42.819Z,1.90
2019-05-09T16:43:58.337Z,2.30
2019-05-09T16:48:12.126Z,2.10
2019-05-09T16:52:26.090Z,2.47
2019-05-09T16:56:40.004Z,2.80
2019-05-09T17:00:54.363Z,2.33
2019-05-09T17:05:08.601Z,2.13
2019-05-09T17:09:22.457Z,2.43
2019-05-09T17:13:36.231Z,2.40
2019-05-09T17:17:51.527Z,2.30
2019-05-09T17:22:42.804Z,2.20
2019-05-09T17:26:58.025Z,2.60
2019-05-09T17:31:11.845Z,2.20
2019-05-09T17:35:27.763Z,2.33
2019-05-09T17:39:42.062Z,2.00
2019-05-09T17:43:58.065Z,2.40
2019-05-09T17:48:10.944Z,2.40
2019-05-09T17:52:24.659Z,2.40
2019-05-09T17:56:39.682Z,1.93
2019-05-09T18:00:53.366Z,2.27
2019-05-09T18:05:07.897Z,2.80
2019-05-09T18:09:21.871Z,2.30
2019-05-09T18:13:35.619Z,2.33
2019-05-09T18:17:51.287Z,2.10
2019-05-09T18:22:08.235Z,2.33
2019-05-09T18:26:22.160Z,3.00
2019-05-09T18:30:38.666Z,2.37
2019-05-09T18:34:58.526Z,2.57
2019-05-09T18:39:12.211Z,2.50
2019-05-09T18:43:27.495Z,2.63
2019-05-09T18:47:41.320Z,3.10
2019-05-09T18:52:03.180Z,3.33
2019-05-09T18:56:12.087Z,3.47
2019-05-09T19:00:26.428Z,3.10
2019-05-09T19:04:42.483Z,2.63
2019-05-09T19:08:58.343Z,3.13
2019-05-09T19:13:23.152Z,3.40
2019-05-09T19:18:14.989Z,2.70
2019-05-09T19:22:44.776Z,3.17
2019-05-09T19:27:02.908Z,3.17
2019-05-09T19:31:17.434Z,3.10
2019-05-09T19:35:35.097Z,3.43
2019-05-09T19:39:54.335Z,2.90
2019-05-09T19:44:14.089Z,4.00
2019-05-09T19:48:42.023Z,3.70
2019-05-09T19:52:56.580Z,3.70
2019-05-09T19:57:32.518Z,3.40
2019-05-09T20:01:53.220Z,3.20
2019-05-09T20:06:09.384Z,3.97
2019-05-09T20:10:41.098Z,3.50
2019-05-09T20:14:55.658Z,3.50
2019-05-09T20:19:11.959Z,3.70
2019-05-09T20:23:28.940Z,3.90
2019-05-09T20:27:43.639Z,3.70
2019-05-09T20:31:59.964Z,4.10
2019-05-09T20:36:16.393Z,3.23
2019-05-09T20:40:32.370Z,3.50
2019-05-09T20:44:46.381Z,3.43
2019-05-09T20:49:03.720Z,3.27
2019-05-09T20:53:18.042Z,3.73
2019-05-09T20:57:32.026Z,3.60
2019-05-09T21:01:45.922Z,3.67
2019-05-09T21:06:00.151Z,3.87
2019-05-09T21:10:15.009Z,3.90
2019-05-09T21:14:30.147Z,3.60
2019-05-09T21:18:44.203Z,4.37
2019-05-09T21:22:58.211Z,4.40
2019-05-09T21:27:12.076Z,3.90
2019-05-09T21:31:25.944Z,4.40
2019-05-09T21:35:40.077Z,4.03
2019-05-09T21:39:54.017Z,3.70
2019-05-09T21:44:07.587Z,4.23
2019-05-09T21:48:20.584Z,3.80
2019-05-09T21:52:32.483Z,4.30
2019-05-09T21:56:44.090Z,3.70
2019-05-09T22:00:58.306Z,3.90
2019-05-09T22:05:10.193Z,3.63
2019-05-09T22:09:22.052Z,3.70
2019-05-09T22:13:33.758Z,4.50
2019-05-09T22:17:47.360Z,4.33
2019-05-09T22:21:59.081Z,3.97
2019-05-09T22:26:10.977Z,4.30
2019-05-09T22:30:23.189Z,4.40
2019-05-09T22:34:34.981Z,4.13
2019-05-09T22:38:47.973Z,4.33
2019-05-09T22:42:59.628Z,4.57
2019-05-09T22:47:11.311Z,4.63
2019-05-09T22:51:23.122Z,4.53
2019-05-09T22:55:34.909Z,4.10
2019-05-09T22:59:46.746Z,5.00
2019-05-09T23:03:58.517Z,4.83
2019-05-09T23:08:10.589Z,4.50
2019-05-09T23:12:22.224Z,4.57
2019-05-09T23:16:36.445Z,4.73
2019-05-09T23:20:54.293Z,4.87
2019-05-09T23:25:06.489Z,4.73
2019-05-09T23:29:18.356Z,5.03
2019-05-09T23:33:32.644Z,4.97
2019-05-09T23:37:44.689Z,4.40
2019-05-09T23:41:56.578Z,5.23
2019-05-09T23:46:08.504Z,5.67
2019-05-09T23:50:20.317Z,5.43
2019-05-09T23:54:49.266Z,5.13
2019-05-09T23:59:18.573Z,4.67
